sim
Sign-in with your pilot id or email,
or register
Callsign
Passwort

Schedule Details

Flight Number: OEO2001
Departure: Paderborn Lippstadt Airport (EDLP) at 17:55
Arrival: Munich Airport (EDDM) at 19:10

Weather Information
Getting current METAR information for EDLP 230950Z VRB04KT CAVOK 21/06 Q1006
Getting current METAR information for EDDM 230950Z 25009KT 5000 -SHRA FEW007 FEW015CB BKN025 15/14 Q1010 RESHRA NOSIG

Schedule Frequency

Route Map